Het weer levert geen direct gevaar op.    Er zijn geen waarschuwingen afgegeven.

Regen radar Meer informatie rain snow radar


Bezoek ook deze websites:

Template documentation
and downloads

And another site



Select another period ( hide this area )

Eenheden Periode Custom range Directly to
Metrisch Engels Beide
Dagelijkse Wekelijkse Maandelijkse Jaarlijkse
use both date-selectors for a custom range
previous Dag
With this date

WeatherUnderground graphs for this period ( click here )


Warning: Division by zero in /customers/a/f/b/meteoassenede.be/httpd.www/weather28/wu/WU-History4.php on line 835
Dagelijkse Samenvatting Vrijdag 25 juni 2021
Tijd Temp. ( °C ) Dew pt. ( °C ) Wind ( km/h ) van Windvlaag ( km/h ) Luchtdruk ( hPa ) Humid.( % ) Rainrate ( cm ) Zonneschijn ( W/m2 )
Hoog13,0 11,1 6,0 ZW ( 57/72 ) 10,0 1020,0 93 - 0
Gemiddeld12,0 10,7 2,1 ZW #23/34 3,5 1019,4 92 - NAN #0/34
Laag11,7 10,5 -   0,0 1019,0 87 -  
Dagelijkse Tabular details for Vrijdag 25 juni 2021
Tijd Temp. ( °C ) Dew pt. ( °C ) Wind ( km/h ) van Windvlaag ( km/h ) Luchtdruk ( hPa ) Humid.( % ) Rainrate ( cm ) Zonneschijn ( W/m2 )
00:04 11,8 10,5 3,0 ZW 5,0 1020,0 92 - -
00:09 11,9 10,6 5,0 ZW 5,0 1020,0 92 - -
00:14 11,9 10,6 3,0 ZW 5,0 1020,0 92 - -
00:19 11,9 10,6   Kalm 3,0 1020,0 92 - -
00:24 11,8 10,5   Kalm   1019,6 92 - -
00:29 11,8 10,5 3,0 ZW 3,0 1019,6 92 - -
00:34 11,8 10,5 1,0 ZW 2,0 1019,6 92 - -
00:39 11,8 10,5   Kalm   1019,6 92 - -
00:44 11,8 10,7   Kalm   1019,6 93 - -
00:49 11,9 10,8   Kalm   1019,6 93 - -
00:54 11,8 10,7   Kalm   1019,6 93 - -
00:59 11,8 10,7   Kalm   1019,6 93 - -
01:04 11,9 10,8   Kalm 3,0 1019,6 93 - -
01:09 11,9 10,8 3,0 ZW 3,0 1019,6 93 - -
01:14 11,9 10,8 1,0 ZW 3,0 1019,3 93 - -
01:19 11,9 10,8 1,0 ZW 3,0 1019,3 93 - -
01:24 11,8 10,7 1,0 ZW 3,0 1019,3 93 - -
01:29 11,8 10,7 1,0 ZW 3,0 1019,3 93 - -
01:34 11,8 10,7 1,0 ZW 3,0 1019,3 93 - -
01:39 11,8 10,7 3,0 ZW 3,0 1019,3 93 - -
01:44 11,8 10,7 1,0 ZW 3,0 1019,3 93 - -
01:49 11,8 10,7 1,0 ZW 2,0 1019,3 93 - -
01:54 11,7 10,6 1,0 ZW 2,0 1019,3 93 - -
01:59 11,8 10,7 1,0 ZW 2,0 1019,3 93 - -
02:04 11,8 10,7 1,0 ZW 2,0 1019,3 93 - -
02:09 11,9 10,8 3,0 ZW 3,0 1019,0 93 - -
02:14 12,0 10,9 3,0 ZW 5,0 1019,0 93 - -
02:19 12,2 11,1 3,0 ZW 5,0 1019,3 93 - -
02:24 12,3 11,0 5,0 ZZW 6,0 1019,0 92 - -
02:29 12,6 11,1 6,0 ZW 10,0 1019,0 92 - -
02:33 12,7 11,0 5,0 ZW 8,0 1019,0 90 - -
02:39 12,8 11,0 6,0 ZW 8,0 1019,0 89 - -
02:44 12,9 11,0 5,0 ZZW 8,0 1019,0 88 - -
02:49 13,0 10,8 5,0 ZZW 8,0 1019,0 87 - -
Dagelijkse Samenvatting Vrijdag 25 juni 2021
Tijd Temp. ( °C ) Dew pt. ( °C ) Wind ( km/h ) van Windvlaag ( km/h ) Luchtdruk ( hPa ) Humid.( % ) Rainrate ( cm ) Zonneschijn ( W/m2 )
Hoog13,0 11,1 6,0 ZW ( 57/72 ) 10,0 1020,0 93 - 0
Gemiddeld12,0 10,7 2,1 ZW #23/34 3,5 1019,4 92 - NAN #0/34
Laag11,7 10,5 -   0,0 1019,0 87 -  
Dagelijkse Tabular details for Vrijdag 25 juni 2021
Tijd Temp. ( °C ) Dew pt. ( °C ) Wind ( km/h ) van Windvlaag ( km/h ) Luchtdruk ( hPa ) Humid.( % ) Rainrate ( cm ) Zonneschijn ( W/m2 )
00:04 11,8 10,5 3,0 ZW 5,0 1020,0 92 - -
00:09 11,9 10,6 5,0 ZW 5,0 1020,0 92 - -
00:14 11,9 10,6 3,0 ZW 5,0 1020,0 92 - -
00:19 11,9 10,6   Kalm 3,0 1020,0 92 - -
00:24 11,8 10,5   Kalm   1019,6 92 - -
00:29 11,8 10,5 3,0 ZW 3,0 1019,6 92 - -
00:34 11,8 10,5 1,0 ZW 2,0 1019,6 92 - -
00:39 11,8 10,5   Kalm   1019,6 92 - -
00:44 11,8 10,7   Kalm   1019,6 93 - -
00:49 11,9 10,8   Kalm   1019,6 93 - -
00:54 11,8 10,7   Kalm   1019,6 93 - -
00:59 11,8 10,7   Kalm   1019,6 93 - -
01:04 11,9 10,8   Kalm 3,0 1019,6 93 - -
01:09 11,9 10,8 3,0 ZW 3,0 1019,6 93 - -
01:14 11,9 10,8 1,0 ZW 3,0 1019,3 93 - -
01:19 11,9 10,8 1,0 ZW 3,0 1019,3 93 - -
01:24 11,8 10,7 1,0 ZW 3,0 1019,3 93 - -
01:29 11,8 10,7 1,0 ZW 3,0 1019,3 93 - -
01:34 11,8 10,7 1,0 ZW 3,0 1019,3 93 - -
01:39 11,8 10,7 3,0 ZW 3,0 1019,3 93 - -
01:44 11,8 10,7 1,0 ZW 3,0 1019,3 93 - -
01:49 11,8 10,7 1,0 ZW 2,0 1019,3 93 - -
01:54 11,7 10,6 1,0 ZW 2,0 1019,3 93 - -
01:59 11,8 10,7 1,0 ZW 2,0 1019,3 93 - -
02:04 11,8 10,7 1,0 ZW 2,0 1019,3 93 - -
02:09 11,9 10,8 3,0 ZW 3,0 1019,0 93 - -
02:14 12,0 10,9 3,0 ZW 5,0 1019,0 93 - -
02:19 12,2 11,1 3,0 ZW 5,0 1019,3 93 - -
02:24 12,3 11,0 5,0 ZZW 6,0 1019,0 92 - -
02:29 12,6 11,1 6,0 ZW 10,0 1019,0 92 - -
02:33 12,7 11,0 5,0 ZW 8,0 1019,0 90 - -
02:39 12,8 11,0 6,0 ZW 8,0 1019,0 89 - -
02:44 12,9 11,0 5,0 ZZW 8,0 1019,0 88 - -
02:49 13,0 10,8 5,0 ZZW 8,0 1019,0 87 - -

Download your copy of this data-set  here

Our weather-data as stored at Weather Underground. Script ontwikkeld door Jim McMurry. Aangepast voor de template door Leuven-Template.eu

U vindt ons ook hier:

Het Weer Aktueel

UK Metoffice

WeatherCloud

Weather Underground

Benelux Weer Netwerk

AWEKAS

Apparatuur in gebruik:

Weerstation
Davis Vantage Pro2

Weerprogramma
Meteobridge

Weercomputer
TP-Link TL-MR3020

Webleverancier
One.com

Davis Vantage Pro2

Meteobridge

TP-Link TL-MR3020

One.com